HECA/CAI METAR and TAF weather

Enter ICAO airport designator
Station Type Date Time Source
HECA METAR 2021/04/17 01:00 UTC NOAA

HECA 170100Z 03007KT CAVOK 17/08 Q1014 NOSIG


Station Type Date Time Source
HECA Decoded METAR 2021/04/17 01:00 UTC NOAA

Cairo Airport, Egypt (HECA) 30-08N 031-24E 74M
Apr 16, 2021 - 09:00 PM EDT / 2021.04.17 0100 UTC
Wind: from the NNE (030 degrees) at 8 MPH (7 KT):0
Visibility: greater than 7 mile(s):0
Temperature: 62 F (17 C)
Dew Point: 46 F (8 C)
Relative Humidity: 55%
Pressure (altimeter): 29.94 in. Hg (1014 hPa)
ob: HECA 170100Z 03007KT CAVOK 17/08 Q1014 NOSIG
cycle: 1

Station Type Date Time Source
HECA TAF 2021/04/17 00:45 UTC NOAA

TAF HECA 162300Z 1700/1806 05013KT CAVOK

Example: see airport list